Etusivu
METAR-TAF:

METAR-TAF

Lentoasemat :

Mount Shasta, Kalifornia, Yhdysvallat

Leveyspiiri: 41-18-57N, Pituuspiiri: 122-18-58W, korkeus merenpinnasta: 1077 m

Tämänhetkinen sää

Tämä raportti tehtiin 29 minuuttia sitten, kello 17.56 UTC
Tuuli 4 kn eri suunnista
Lämpötila 12°C
Kosteus 50%
Ilmanpaine 1019 hPa
Näkyvyys: 16.1 km
selkeää

METAR: KMHS 131756Z AUTO VRB04KT 10SM CLR 12/02 A3010 RMK AO2 SLP210 T01220022 10128 21006 50000

Aika: 10:25 (18:25 UTC)


TAF: puuttuu

Säähavainnot ja -ennusteet yli 4000 lentoasemalta (METAR- ja TAF-raportit).

Käytössä olevat sääasemat on merkitty karttaan keltaisilla ja punaisilla pisteillä.

Aseta hiiri pisteen päälle nähdäksesi sääaseman nimen.

Klikkaa sitten nähdäksesi säähavainnot ja -ennusteet.

Kartan vaihtaminen: klikkaa mustalla rastilla varustettuja vihreitä pisteitä, niin voit zoomata sisään; viivalla varustettua vihreää pistettä, niin voit zoomata ulos tai vihreitä nuolia, niin pääset viereisille kartoille.


METAR-TAF: